sensor_id;sensor_type;location;lat;lon;timestamp;P1;durP1;ratioP1;P2;durP2;ratioP2
56810;SDS011;42691;47.234;27.494;2022-10-04T00:01:20;7.60;;;2.42;;
56810;SDS011;42691;47.234;27.494;2022-10-04T00:03:50;4.43;;;2.72;;
56810;SDS011;42691;47.234;27.494;2022-10-04T00:06:27;6.90;;;2.22;;
56810;SDS011;42691;47.234;27.494;2022-10-04T00:11:34;4.53;;;1.88;;
56810;SDS011;42691;47.234;27.494;2022-10-04T00:14:06;3.28;;;2.25;;
56810;SDS011;42691;47.234;27.494;2022-10-04T00:16:38;8.38;;;1.58;;
56810;SDS011;42691;47.234;27.494;2022-10-04T00:34:49;4.05;;;2.15;;
56810;SDS011;42691;47.234;27.494;2022-10-04T00:37:17;7.65;;;2.60;;
56810;SDS011;42691;47.234;27.494;2022-10-04T00:40:26;5.10;;;1.90;;
56810;SDS011;42691;47.234;27.494;2022-10-04T00:45:11;8.88;;;3.92;;
56810;SDS011;42691;47.234;27.494;2022-10-04T00:52:57;10.48;;;2.83;;
56810;SDS011;42691;47.234;27.494;2022-10-04T00:55:36;6.03;;;4.07;;
56810;SDS011;42691;47.234;27.494;2022-10-04T00:58:19;2.80;;;2.10;;
56810;SDS011;42691;47.234;27.494;2022-10-04T01:00:49;4.03;;;2.17;;
56810;SDS011;42691;47.234;27.494;2022-10-04T01:03:18;4.95;;;2.20;;
56810;SDS011;42691;47.234;27.494;2022-10-04T01:05:58;6.43;;;2.90;;
56810;SDS011;42691;47.234;27.494;2022-10-04T01:08:31;1.92;;;1.60;;
56810;SDS011;42691;47.234;27.494;2022-10-04T01:11:04;10.75;;;2.22;;
56810;SDS011;42691;47.234;27.494;2022-10-04T01:13:38;6.57;;;2.25;;
56810;SDS011;42691;47.234;27.494;2022-10-04T01:18:39;5.20;;;3.00;;
56810;SDS011;42691;47.234;27.494;2022-10-04T01:21:19;2.97;;;2.05;;
56810;SDS011;42691;47.234;27.494;2022-10-04T01:29:04;5.07;;;2.67;;
56810;SDS011;42691;47.234;27.494;2022-10-04T01:31:31;5.28;;;2.90;;
56810;SDS011;42691;47.234;27.494;2022-10-04T01:33:58;7.40;;;2.95;;
56810;SDS011;42691;47.234;27.494;2022-10-04T01:36:25;21.27;;;3.05;;
56810;SDS011;42691;47.234;27.494;2022-10-04T01:38:52;6.88;;;3.35;;
56810;SDS011;42691;47.234;27.494;2022-10-04T01:41:23;3.00;;;1.88;;
56810;SDS011;42691;47.234;27.494;2022-10-04T01:43:57;2.20;;;1.85;;
56810;SDS011;42691;47.234;27.494;2022-10-04T01:46:31;3.88;;;1.48;;
56810;SDS011;42691;47.234;27.494;2022-10-04T01:49:01;6.43;;;2.60;;
56810;SDS011;42691;47.234;27.494;2022-10-04T01:51:35;5.53;;;2.20;;
56810;SDS011;42691;47.234;27.494;2022-10-04T01:54:12;8.85;;;4.15;;
56810;SDS011;42691;47.234;27.494;2022-10-04T01:59:31;15.05;;;2.55;;
56810;SDS011;42691;47.234;27.494;2022-10-04T02:02:08;5.95;;;2.55;;
56810;SDS011;42691;47.234;27.494;2022-10-04T02:04:42;4.55;;;1.80;;
56810;SDS011;42691;47.234;27.494;2022-10-04T02:07:13;21.38;;;3.80;;
56810;SDS011;42691;47.234;27.494;2022-10-04T02:09:42;5.50;;;1.63;;
56810;SDS011;42691;47.234;27.494;2022-10-04T02:12:14;1.90;;;1.27;;
56810;SDS011;42691;47.234;27.494;2022-10-04T02:14:48;3.58;;;2.00;;
56810;SDS011;42691;47.234;27.494;2022-10-04T02:17:20;2.72;;;2.30;;
56810;SDS011;42691;47.234;27.494;2022-10-04T02:19:52;3.58;;;1.42;;
56810;SDS011;42691;47.234;27.494;2022-10-04T02:22:18;3.28;;;2.95;;
56810;SDS011;42691;47.234;27.494;2022-10-04T02:24:46;4.57;;;3.58;;
56810;SDS011;42691;47.234;27.494;2022-10-04T02:27:14;4.75;;;1.88;;
56810;SDS011;42691;47.234;27.494;2022-10-04T02:29:40;1.85;;;1.20;;
56810;SDS011;42691;47.234;27.494;2022-10-04T02:32:06;2.17;;;1.95;;
56810;SDS011;42691;47.234;27.494;2022-10-04T02:34:51;2.53;;;2.10;;
56810;SDS011;42691;47.234;27.494;2022-10-04T02:37:20;3.78;;;1.63;;
56810;SDS011;42691;47.234;27.494;2022-10-04T02:39:57;9.05;;;2.03;;
56810;SDS011;42691;47.234;27.494;2022-10-04T02:45:15;2.63;;;1.50;;
56810;SDS011;42691;47.234;27.494;2022-10-04T02:47:50;18.13;;;2.58;;
56810;SDS011;42691;47.234;27.494;2022-10-04T02:50:28;7.05;;;2.20;;
56810;SDS011;42691;47.234;27.494;2022-10-04T02:53:11;7.80;;;2.55;;
56810;SDS011;42691;47.234;27.494;2022-10-04T02:55:43;4.03;;;1.95;;
56810;SDS011;42691;47.234;27.494;2022-10-04T02:58:11;4.45;;;1.25;;
56810;SDS011;42691;47.234;27.494;2022-10-04T03:00:48;1.90;;;1.40;;
56810;SDS011;42691;47.234;27.494;2022-10-04T03:06:07;2.67;;;2.28;;
56810;SDS011;42691;47.234;27.494;2022-10-04T03:08:42;4.05;;;1.42;;
56810;SDS011;42691;47.234;27.494;2022-10-04T03:11:11;3.63;;;1.90;;
56810;SDS011;42691;47.234;27.494;2022-10-04T03:13:40;3.38;;;2.30;;
56810;SDS011;42691;47.234;27.494;2022-10-04T03:16:10;2.90;;;1.40;;
56810;SDS011;42691;47.234;27.494;2022-10-04T03:18:37;4.55;;;2.05;;
56810;SDS011;42691;47.234;27.494;2022-10-04T03:21:04;3.53;;;1.35;;
56810;SDS011;42691;47.234;27.494;2022-10-04T03:23:32;6.97;;;1.85;;
56810;SDS011;42691;47.234;27.494;2022-10-04T03:28:36;33.90;;;9.35;;
56810;SDS011;42691;47.234;27.494;2022-10-04T03:31:02;131.27;;;21.02;;
56810;SDS011;42691;47.234;27.494;2022-10-04T03:33:28;39.40;;;8.10;;
56810;SDS011;42691;47.234;27.494;2022-10-04T03:35:55;94.68;;;19.83;;
56810;SDS011;42691;47.234;27.494;2022-10-04T03:38:24;127.95;;;20.17;;
56810;SDS011;42691;47.234;27.494;2022-10-04T03:40:55;10.88;;;4.82;;
56810;SDS011;42691;47.234;27.494;2022-10-04T03:43:29;7.22;;;3.25;;
56810;SDS011;42691;47.234;27.494;2022-10-04T03:45:58;4.45;;;2.28;;
56810;SDS011;42691;47.234;27.494;2022-10-04T03:48:47;3.35;;;1.90;;
56810;SDS011;42691;47.234;27.494;2022-10-04T03:51:22;5.57;;;2.03;;
56810;SDS011;42691;47.234;27.494;2022-10-04T03:53:56;2.33;;;1.45;;
56810;SDS011;42691;47.234;27.494;2022-10-04T03:59:01;11.45;;;2.63;;
56810;SDS011;42691;47.234;27.494;2022-10-04T04:01:43;3.08;;;1.73;;
56810;SDS011;42691;47.234;27.494;2022-10-04T04:07:00;4.53;;;1.92;;
56810;SDS011;42691;47.234;27.494;2022-10-04T04:09:41;4.07;;;2.80;;
56810;SDS011;42691;47.234;27.494;2022-10-04T04:12:20;3.00;;;1.40;;
56810;SDS011;42691;47.234;27.494;2022-10-04T04:14:50;2.58;;;2.03;;
56810;SDS011;42691;47.234;27.494;2022-10-04T04:19:56;2.40;;;1.73;;
56810;SDS011;42691;47.234;27.494;2022-10-04T04:22:23;2.50;;;1.40;;
56810;SDS011;42691;47.234;27.494;2022-10-04T04:24:56;6.82;;;3.00;;
56810;SDS011;42691;47.234;27.494;2022-10-04T04:27:24;2.22;;;2.03;;
56810;SDS011;42691;47.234;27.494;2022-10-04T04:29:53;9.15;;;3.38;;
56810;SDS011;42691;47.234;27.494;2022-10-04T04:37:31;3.88;;;1.63;;
56810;SDS011;42691;47.234;27.494;2022-10-04T04:40:12;3.63;;;1.45;;
56810;SDS011;42691;47.234;27.494;2022-10-04T04:42:43;2.05;;;1.45;;
56810;SDS011;42691;47.234;27.494;2022-10-04T04:47:40;8.07;;;1.30;;
56810;SDS011;42691;47.234;27.494;2022-10-04T04:50:12;2.83;;;1.90;;
56810;SDS011;42691;47.234;27.494;2022-10-04T04:52:48;2.55;;;1.88;;
56810;SDS011;42691;47.234;27.494;2022-10-04T04:55:28;4.43;;;2.90;;
56810;SDS011;42691;47.234;27.494;2022-10-04T04:57:58;2.75;;;2.00;;
56810;SDS011;42691;47.234;27.494;2022-10-04T05:00:28;5.18;;;2.17;;
56810;SDS011;42691;47.234;27.494;2022-10-04T05:02:56;6.32;;;1.73;;
56810;SDS011;42691;47.234;27.494;2022-10-04T05:10:51;3.75;;;1.60;;
56810;SDS011;42691;47.234;27.494;2022-10-04T05:13:29;3.08;;;1.98;;
56810;SDS011;42691;47.234;27.494;2022-10-04T05:16:49;5.30;;;1.90;;
56810;SDS011;42691;47.234;27.494;2022-10-04T05:19:14;2.78;;;1.27;;
56810;SDS011;42691;47.234;27.494;2022-10-04T05:21:47;3.22;;;1.42;;
56810;SDS011;42691;47.234;27.494;2022-10-04T05:24:20;34.67;;;4.68;;
56810;SDS011;42691;47.234;27.494;2022-10-04T05:27:42;3.92;;;1.90;;
56810;SDS011;42691;47.234;27.494;2022-10-04T05:35:25;5.28;;;1.58;;
56810;SDS011;42691;47.234;27.494;2022-10-04T05:40:48;3.42;;;1.58;;
56810;SDS011;42691;47.234;27.494;2022-10-04T05:43:29;6.22;;;1.60;;
56810;SDS011;42691;47.234;27.494;2022-10-04T05:48:44;2.33;;;1.80;;
56810;SDS011;42691;47.234;27.494;2022-10-04T05:51:21;2.35;;;1.42;;
56810;SDS011;42691;47.234;27.494;2022-10-04T05:53:54;5.50;;;1.50;;
56810;SDS011;42691;47.234;27.494;2022-10-04T06:01:42;5.95;;;1.95;;
56810;SDS011;42691;47.234;27.494;2022-10-04T06:08:02;1.52;;;1.20;;
56810;SDS011;42691;47.234;27.494;2022-10-04T06:10:49;1.70;;;1.58;;
56810;SDS011;42691;47.234;27.494;2022-10-04T06:13:26;5.28;;;1.88;;
56810;SDS011;42691;47.234;27.494;2022-10-04T06:24:15;3.25;;;1.17;;
56810;SDS011;42691;47.234;27.494;2022-10-04T06:26:47;6.82;;;2.03;;
56810;SDS011;42691;47.234;27.494;2022-10-04T06:29:39;4.13;;;1.40;;
56810;SDS011;42691;47.234;27.494;2022-10-04T06:40:21;1.95;;;1.10;;
56810;SDS011;42691;47.234;27.494;2022-10-04T06:45:50;2.75;;;1.58;;
56810;SDS011;42691;47.234;27.494;2022-10-04T07:00:28;7.28;;;2.28;;
56810;SDS011;42691;47.234;27.494;2022-10-04T07:03:08;2.67;;;1.30;;
56810;SDS011;42691;47.234;27.494;2022-10-04T07:08:20;1.00;;;0.90;;
56810;SDS011;42691;47.234;27.494;2022-10-04T07:13:56;2.15;;;1.63;;
56810;SDS011;42691;47.234;27.494;2022-10-04T07:16:42;1.17;;;1.08;;
56810;SDS011;42691;47.234;27.494;2022-10-04T07:27:03;2.85;;;1.33;;
56810;SDS011;42691;47.234;27.494;2022-10-04T07:29:37;2.35;;;1.20;;
56810;SDS011;42691;47.234;27.494;2022-10-04T07:32:11;2.03;;;1.08;;
56810;SDS011;42691;47.234;27.494;2022-10-04T07:34:57;4.00;;;1.67;;
56810;SDS011;42691;47.234;27.494;2022-10-04T07:37:35;3.00;;;2.17;;
56810;SDS011;42691;47.234;27.494;2022-10-04T07:41:11;3.72;;;2.20;;
56810;SDS011;42691;47.234;27.494;2022-10-04T07:43:30;3.72;;;1.20;;
56810;SDS011;42691;47.234;27.494;2022-10-04T07:46:05;3.00;;;1.58;;
56810;SDS011;42691;47.234;27.494;2022-10-04T07:48:41;3.00;;;1.55;;
56810;SDS011;42691;47.234;27.494;2022-10-04T07:53:58;4.78;;;1.20;;
56810;SDS011;42691;47.234;27.494;2022-10-04T07:56:37;4.90;;;1.65;;
56810;SDS011;42691;47.234;27.494;2022-10-04T08:02:22;3.47;;;1.42;;
56810;SDS011;42691;47.234;27.494;2022-10-04T08:07:48;4.03;;;1.63;;
56810;SDS011;42691;47.234;27.494;2022-10-04T08:15:53;3.38;;;1.98;;
56810;SDS011;42691;47.234;27.494;2022-10-04T08:21:07;2.45;;;1.27;;
56810;SDS011;42691;47.234;27.494;2022-10-04T08:24:03;2.25;;;1.48;;
56810;SDS011;42691;47.234;27.494;2022-10-04T08:29:30;3.10;;;1.92;;
56810;SDS011;42691;47.234;27.494;2022-10-04T08:40:35;3.58;;;1.65;;
56810;SDS011;42691;47.234;27.494;2022-10-04T09:03:01;4.55;;;1.77;;
56810;SDS011;42691;47.234;27.494;2022-10-04T09:11:24;3.92;;;1.50;;
56810;SDS011;42691;47.234;27.494;2022-10-04T09:13:39;3.75;;;1.95;;
56810;SDS011;42691;47.234;27.494;2022-10-04T09:16:30;3.60;;;1.75;;
56810;SDS011;42691;47.234;27.494;2022-10-04T09:38:58;4.93;;;2.30;;
56810;SDS011;42691;47.234;27.494;2022-10-04T09:47:26;3.92;;;1.80;;
56810;SDS011;42691;47.234;27.494;2022-10-04T10:00:23;2.10;;;1.33;;
56810;SDS011;42691;47.234;27.494;2022-10-04T10:17:33;4.43;;;2.00;;
56810;SDS011;42691;47.234;27.494;2022-10-04T10:51:09;1.40;;;1.00;;
56810;SDS011;42691;47.234;27.494;2022-10-04T11:10:52;2.22;;;1.35;;
56810;SDS011;42691;47.234;27.494;2022-10-04T11:39:00;1.63;;;1.10;;
56810;SDS011;42691;47.234;27.494;2022-10-04T11:45:06;7.38;;;1.85;;
56810;SDS011;42691;47.234;27.494;2022-10-04T11:48:00;4.10;;;1.25;;
56810;SDS011;42691;47.234;27.494;2022-10-04T11:56:17;2.78;;;0.90;;
56810;SDS011;42691;47.234;27.494;2022-10-04T12:10:35;2.78;;;0.90;;
56810;SDS011;42691;47.234;27.494;2022-10-04T12:32:03;2.40;;;1.23;;
56810;SDS011;42691;47.234;27.494;2022-10-04T12:35:21;1.95;;;1.00;;
56810;SDS011;42691;47.234;27.494;2022-10-04T12:37:32;8.32;;;2.10;;
56810;SDS011;42691;47.234;27.494;2022-10-04T13:02:28;1.80;;;1.40;;
56810;SDS011;42691;47.234;27.494;2022-10-04T13:11:52;2.95;;;1.65;;
56810;SDS011;42691;47.234;27.494;2022-10-04T13:19:20;2.00;;;1.10;;
56810;SDS011;42691;47.234;27.494;2022-10-04T13:25:24;1.33;;;1.20;;
56810;SDS011;42691;47.234;27.494;2022-10-04T13:30:52;1.08;;;0.98;;
56810;SDS011;42691;47.234;27.494;2022-10-04T13:56:06;0.80;;;0.80;;
56810;SDS011;42691;47.234;27.494;2022-10-04T13:59:16;1.40;;;1.00;;
56810;SDS011;42691;47.234;27.494;2022-10-04T14:35:47;2.90;;;1.08;;
56810;SDS011;42691;47.234;27.494;2022-10-04T14:41:29;3.15;;;1.25;;
56810;SDS011;42691;47.234;27.494;2022-10-04T14:52:21;1.80;;;0.90;;
56810;SDS011;42691;47.234;27.494;2022-10-04T15:00:27;3.50;;;1.00;;
56810;SDS011;42691;47.234;27.494;2022-10-04T15:05:34;2.03;;;0.90;;
56810;SDS011;42691;47.234;27.494;2022-10-04T15:10:35;1.05;;;0.82;;
56810;SDS011;42691;47.234;27.494;2022-10-04T15:15:56;2.17;;;1.98;;
56810;SDS011;42691;47.234;27.494;2022-10-04T15:18:38;0.93;;;0.80;;
56810;SDS011;42691;47.234;27.494;2022-10-04T15:23:50;2.08;;;1.15;;
56810;SDS011;42691;47.234;27.494;2022-10-04T15:31:35;1.80;;;1.10;;
56810;SDS011;42691;47.234;27.494;2022-10-04T15:37:24;1.55;;;1.05;;
56810;SDS011;42691;47.234;27.494;2022-10-04T15:40:15;2.08;;;1.42;;
56810;SDS011;42691;47.234;27.494;2022-10-04T15:43:32;2.40;;;0.95;;
56810;SDS011;42691;47.234;27.494;2022-10-04T16:00:47;12.07;;;1.55;;
56810;SDS011;42691;47.234;27.494;2022-10-04T16:06:24;1.65;;;1.08;;
56810;SDS011;42691;47.234;27.494;2022-10-04T16:22:34;1.48;;;1.13;;
56810;SDS011;42691;47.234;27.494;2022-10-04T16:27:48;6.43;;;2.75;;
56810;SDS011;42691;47.234;27.494;2022-10-04T16:35:49;2.20;;;1.67;;
56810;SDS011;42691;47.234;27.494;2022-10-04T16:38:28;6.93;;;3.70;;
56810;SDS011;42691;47.234;27.494;2022-10-04T16:41:09;20.75;;;3.53;;
56810;SDS011;42691;47.234;27.494;2022-10-04T16:43:46;7.68;;;2.22;;
56810;SDS011;42691;47.234;27.494;2022-10-04T16:46:18;3.97;;;2.75;;
56810;SDS011;42691;47.234;27.494;2022-10-04T16:49:01;7.97;;;2.70;;
56810;SDS011;42691;47.234;27.494;2022-10-04T16:51:51;5.63;;;2.97;;
56810;SDS011;42691;47.234;27.494;2022-10-04T16:57:29;3.20;;;2.85;;
56810;SDS011;42691;47.234;27.494;2022-10-04T16:59:56;5.88;;;2.65;;
56810;SDS011;42691;47.234;27.494;2022-10-04T17:13:34;5.72;;;2.30;;
56810;SDS011;42691;47.234;27.494;2022-10-04T17:43:21;5.07;;;3.05;;
56810;SDS011;42691;47.234;27.494;2022-10-04T17:45:57;6.13;;;2.92;;
56810;SDS011;42691;47.234;27.494;2022-10-04T17:48:38;2.80;;;2.30;;
56810;SDS011;42691;47.234;27.494;2022-10-04T17:51:46;10.60;;;3.30;;
56810;SDS011;42691;47.234;27.494;2022-10-04T17:54:38;20.02;;;3.60;;
56810;SDS011;42691;47.234;27.494;2022-10-04T18:05:43;9.70;;;3.45;;
56810;SDS011;42691;47.234;27.494;2022-10-04T18:08:16;7.72;;;2.53;;
56810;SDS011;42691;47.234;27.494;2022-10-04T18:10:54;9.90;;;2.72;;
56810;SDS011;42691;47.234;27.494;2022-10-04T18:13:28;6.68;;;1.75;;
56810;SDS011;42691;47.234;27.494;2022-10-04T18:16:19;2.58;;;2.08;;
56810;SDS011;42691;47.234;27.494;2022-10-04T18:18:50;2.45;;;2.22;;
56810;SDS011;42691;47.234;27.494;2022-10-04T18:21:23;13.55;;;1.80;;
56810;SDS011;42691;47.234;27.494;2022-10-04T18:26:41;4.90;;;3.65;;
56810;SDS011;42691;47.234;27.494;2022-10-04T18:29:42;7.20;;;3.45;;
56810;SDS011;42691;47.234;27.494;2022-10-04T18:34:53;3.30;;;2.13;;
56810;SDS011;42691;47.234;27.494;2022-10-04T18:37:27;4.57;;;2.03;;
56810;SDS011;42691;47.234;27.494;2022-10-04T18:40:04;4.40;;;3.25;;
56810;SDS011;42691;47.234;27.494;2022-10-04T18:42:57;9.90;;;2.00;;
56810;SDS011;42691;47.234;27.494;2022-10-04T18:48:00;5.40;;;2.35;;
56810;SDS011;42691;47.234;27.494;2022-10-04T18:50:38;12.55;;;3.25;;
56810;SDS011;42691;47.234;27.494;2022-10-04T18:55:59;5.38;;;2.65;;
56810;SDS011;42691;47.234;27.494;2022-10-04T19:01:48;2.85;;;2.15;;
56810;SDS011;42691;47.234;27.494;2022-10-04T19:04:44;4.78;;;2.50;;
56810;SDS011;42691;47.234;27.494;2022-10-04T19:12:46;6.20;;;2.78;;
56810;SDS011;42691;47.234;27.494;2022-10-04T19:15:38;6.43;;;3.10;;
56810;SDS011;42691;47.234;27.494;2022-10-04T19:26:28;6.82;;;3.72;;
56810;SDS011;42691;47.234;27.494;2022-10-04T19:29:04;11.68;;;6.10;;
56810;SDS011;42691;47.234;27.494;2022-10-04T19:34:46;16.63;;;5.15;;
56810;SDS011;42691;47.234;27.494;2022-10-04T19:37:31;7.13;;;5.03;;
56810;SDS011;42691;47.234;27.494;2022-10-04T19:42:59;4.40;;;2.72;;
56810;SDS011;42691;47.234;27.494;2022-10-04T19:45:49;6.78;;;3.38;;
56810;SDS011;42691;47.234;27.494;2022-10-04T19:48:48;8.50;;;4.38;;
56810;SDS011;42691;47.234;27.494;2022-10-04T19:53:44;4.85;;;2.35;;
56810;SDS011;42691;47.234;27.494;2022-10-04T19:56:18;5.43;;;3.95;;
56810;SDS011;42691;47.234;27.494;2022-10-04T19:59:04;6.65;;;4.25;;
56810;SDS011;42691;47.234;27.494;2022-10-04T20:01:34;11.05;;;4.90;;
56810;SDS011;42691;47.234;27.494;2022-10-04T20:04:01;4.22;;;2.85;;
56810;SDS011;42691;47.234;27.494;2022-10-04T20:06:53;15.88;;;5.57;;
56810;SDS011;42691;47.234;27.494;2022-10-04T20:12:02;6.38;;;3.67;;
56810;SDS011;42691;47.234;27.494;2022-10-04T20:22:51;3.83;;;2.72;;
56810;SDS011;42691;47.234;27.494;2022-10-04T20:34:57;7.32;;;2.47;;
56810;SDS011;42691;47.234;27.494;2022-10-04T20:43:22;5.72;;;3.13;;
56810;SDS011;42691;47.234;27.494;2022-10-04T20:45:43;6.60;;;3.35;;
56810;SDS011;42691;47.234;27.494;2022-10-04T20:48:31;10.65;;;4.30;;
56810;SDS011;42691;47.234;27.494;2022-10-04T20:51:05;7.00;;;4.35;;
56810;SDS011;42691;47.234;27.494;2022-10-04T20:53:33;8.05;;;5.03;;
56810;SDS011;42691;47.234;27.494;2022-10-04T20:56:09;7.93;;;4.72;;
56810;SDS011;42691;47.234;27.494;2022-10-04T20:58:54;5.80;;;3.10;;
56810;SDS011;42691;47.234;27.494;2022-10-04T21:01:28;9.55;;;5.00;;
56810;SDS011;42691;47.234;27.494;2022-10-04T21:06:54;5.93;;;4.75;;
56810;SDS011;42691;47.234;27.494;2022-10-04T21:09:21;4.65;;;2.95;;
56810;SDS011;42691;47.234;27.494;2022-10-04T21:11:50;9.43;;;4.93;;
56810;SDS011;42691;47.234;27.494;2022-10-04T21:14:23;14.43;;;6.00;;
56810;SDS011;42691;47.234;27.494;2022-10-04T21:16:54;5.15;;;3.22;;
56810;SDS011;42691;47.234;27.494;2022-10-04T21:22:05;4.75;;;2.60;;
56810;SDS011;42691;47.234;27.494;2022-10-04T21:24:37;6.07;;;2.92;;
56810;SDS011;42691;47.234;27.494;2022-10-04T21:27:24;7.28;;;3.80;;
56810;SDS011;42691;47.234;27.494;2022-10-04T21:29:58;7.47;;;3.47;;
56810;SDS011;42691;47.234;27.494;2022-10-04T21:32:25;5.82;;;3.50;;
56810;SDS011;42691;47.234;27.494;2022-10-04T21:34:51;6.90;;;3.95;;
56810;SDS011;42691;47.234;27.494;2022-10-04T21:37:17;8.02;;;3.47;;
56810;SDS011;42691;47.234;27.494;2022-10-04T21:39:43;4.20;;;2.90;;
56810;SDS011;42691;47.234;27.494;2022-10-04T21:42:09;5.28;;;3.78;;
56810;SDS011;42691;47.234;27.494;2022-10-04T21:44:35;24.27;;;5.18;;
56810;SDS011;42691;47.234;27.494;2022-10-04T21:47:01;10.20;;;3.97;;
56810;SDS011;42691;47.234;27.494;2022-10-04T21:49:26;11.52;;;3.80;;
56810;SDS011;42691;47.234;27.494;2022-10-04T21:51:52;12.35;;;2.95;;
56810;SDS011;42691;47.234;27.494;2022-10-04T21:54:17;7.05;;;3.40;;
56810;SDS011;42691;47.234;27.494;2022-10-04T21:56:42;6.43;;;2.28;;
56810;SDS011;42691;47.234;27.494;2022-10-04T21:59:08;6.72;;;2.95;;
56810;SDS011;42691;47.234;27.494;2022-10-04T22:01:34;5.72;;;3.72;;
56810;SDS011;42691;47.234;27.494;2022-10-04T22:03:59;7.68;;;2.90;;
56810;SDS011;42691;47.234;27.494;2022-10-04T22:06:25;6.53;;;2.03;;
56810;SDS011;42691;47.234;27.494;2022-10-04T22:08:50;4.40;;;2.60;;
56810;SDS011;42691;47.234;27.494;2022-10-04T22:11:16;6.68;;;3.50;;
56810;SDS011;42691;47.234;27.494;2022-10-04T22:13:42;4.85;;;2.50;;
56810;SDS011;42691;47.234;27.494;2022-10-04T22:16:08;2.65;;;1.60;;
56810;SDS011;42691;47.234;27.494;2022-10-04T22:18:34;8.57;;;3.03;;
56810;SDS011;42691;47.234;27.494;2022-10-04T22:21:00;3.00;;;1.80;;
56810;SDS011;42691;47.234;27.494;2022-10-04T22:23:27;4.22;;;2.15;;
56810;SDS011;42691;47.234;27.494;2022-10-04T22:25:57;4.03;;;2.60;;
56810;SDS011;42691;47.234;27.494;2022-10-04T22:30:50;2.08;;;1.65;;
56810;SDS011;42691;47.234;27.494;2022-10-04T22:33:35;4.72;;;2.22;;
56810;SDS011;42691;47.234;27.494;2022-10-04T22:38:56;2.80;;;1.87;;
56810;SDS011;42691;47.234;27.494;2022-10-04T22:41:26;2.70;;;1.70;;
56810;SDS011;42691;47.234;27.494;2022-10-04T22:43:55;9.18;;;2.58;;
56810;SDS011;42691;47.234;27.494;2022-10-04T22:46:22;3.70;;;1.48;;
56810;SDS011;42691;47.234;27.494;2022-10-04T22:48:52;3.25;;;1.48;;
56810;SDS011;42691;47.234;27.494;2022-10-04T22:51:17;4.45;;;2.53;;
56810;SDS011;42691;47.234;27.494;2022-10-04T22:53:44;2.55;;;1.73;;
56810;SDS011;42691;47.234;27.494;2022-10-04T22:56:11;3.83;;;1.70;;
56810;SDS011;42691;47.234;27.494;2022-10-04T22:58:38;7.88;;;2.08;;
56810;SDS011;42691;47.234;27.494;2022-10-04T23:01:15;3.55;;;1.85;;
56810;SDS011;42691;47.234;27.494;2022-10-04T23:03:46;10.57;;;2.08;;
56810;SDS011;42691;47.234;27.494;2022-10-04T23:06:12;3.25;;;1.98;;
56810;SDS011;42691;47.234;27.494;2022-10-04T23:08:42;5.32;;;1.88;;
56810;SDS011;42691;47.234;27.494;2022-10-04T23:11:08;1.48;;;1.35;;
56810;SDS011;42691;47.234;27.494;2022-10-04T23:13:34;2.65;;;1.58;;
56810;SDS011;42691;47.234;27.494;2022-10-04T23:16:01;2.17;;;1.60;;
56810;SDS011;42691;47.234;27.494;2022-10-04T23:18:35;4.72;;;1.85;;
56810;SDS011;42691;47.234;27.494;2022-10-04T23:21:01;2.55;;;1.38;;
56810;SDS011;42691;47.234;27.494;2022-10-04T23:23:27;3.38;;;1.80;;
56810;SDS011;42691;47.234;27.494;2022-10-04T23:25:55;8.32;;;2.70;;
56810;SDS011;42691;47.234;27.494;2022-10-04T23:28:20;2.60;;;1.40;;
56810;SDS011;42691;47.234;27.494;2022-10-04T23:30:54;4.85;;;1.60;;
56810;SDS011;42691;47.234;27.494;2022-10-04T23:33:26;2.83;;;1.40;;
56810;SDS011;42691;47.234;27.494;2022-10-04T23:35:51;7.50;;;2.90;;
56810;SDS011;42691;47.234;27.494;2022-10-04T23:38:19;3.40;;;1.80;;
56810;SDS011;42691;47.234;27.494;2022-10-04T23:40:46;1.92;;;1.33;;
56810;SDS011;42691;47.234;27.494;2022-10-04T23:43:21;3.67;;;1.85;;
56810;SDS011;42691;47.234;27.494;2022-10-04T23:45:52;5.03;;;1.95;;
56810;SDS011;42691;47.234;27.494;2022-10-04T23:48:23;2.90;;;1.98;;
56810;SDS011;42691;47.234;27.494;2022-10-04T23:50:53;3.40;;;2.30;;
56810;SDS011;42691;47.234;27.494;2022-10-04T23:53:22;6.80;;;2.65;;
56810;SDS011;42691;47.234;27.494;2022-10-04T23:55:51;11.93;;;3.92;;
56810;SDS011;42691;47.234;27.494;2022-10-04T23:58:19;5.20;;;2.53;;
